sensor_id;sensor_type;location;lat;lon;timestamp;pressure;altitude;pressure_sealevel;temperature;humidity
49645;BME280;36494;50.730;-1.932;2023-03-22T00:00:37;99930.61;;;9.90;100.00
49645;BME280;36494;50.730;-1.932;2023-03-22T00:03:03;99934.03;;;9.92;100.00
49645;BME280;36494;50.730;-1.932;2023-03-22T00:05:29;99922.31;;;9.96;100.00
49645;BME280;36494;50.730;-1.932;2023-03-22T00:07:54;99918.32;;;9.95;100.00
49645;BME280;36494;50.730;-1.932;2023-03-22T00:10:20;99919.65;;;9.94;100.00
49645;BME280;36494;50.730;-1.932;2023-03-22T00:12:45;99906.44;;;10.00;100.00
49645;BME280;36494;50.730;-1.932;2023-03-22T00:15:11;99911.72;;;9.99;100.00
49645;BME280;36494;50.730;-1.932;2023-03-22T00:17:36;99914.82;;;9.93;100.00
49645;BME280;36494;50.730;-1.932;2023-03-22T00:20:02;99906.76;;;9.97;100.00
49645;BME280;36494;50.730;-1.932;2023-03-22T00:22:27;99895.28;;;9.89;100.00
49645;BME280;36494;50.730;-1.932;2023-03-22T00:24:52;99895.03;;;9.90;100.00
49645;BME280;36494;50.730;-1.932;2023-03-22T00:27:18;99893.03;;;9.85;100.00
49645;BME280;36494;50.730;-1.932;2023-03-22T00:29:43;99886.08;;;9.84;100.00
49645;BME280;36494;50.730;-1.932;2023-03-22T00:32:08;99880.87;;;9.85;100.00
49645;BME280;36494;50.730;-1.932;2023-03-22T00:34:34;99875.11;;;9.78;100.00
49645;BME280;36494;50.730;-1.932;2023-03-22T00:36:59;99864.37;;;9.66;100.00
49645;BME280;36494;50.730;-1.932;2023-03-22T00:39:24;99873.41;;;9.67;100.00
49645;BME280;36494;50.730;-1.932;2023-03-22T00:41:50;99870.86;;;9.66;100.00
49645;BME280;36494;50.730;-1.932;2023-03-22T00:44:15;99868.11;;;9.66;100.00
49645;BME280;36494;50.730;-1.932;2023-03-22T00:46:41;99863.29;;;9.64;100.00
49645;BME280;36494;50.730;-1.932;2023-03-22T00:49:06;99867.33;;;9.65;100.00
49645;BME280;36494;50.730;-1.932;2023-03-22T00:51:31;99870.28;;;9.61;100.00
49645;BME280;36494;50.730;-1.932;2023-03-22T00:53:56;99863.23;;;9.62;100.00
49645;BME280;36494;50.730;-1.932;2023-03-22T00:56:21;99839.81;;;9.50;100.00
49645;BME280;36494;50.730;-1.932;2023-03-22T00:58:47;99854.53;;;9.49;100.00
49645;BME280;36494;50.730;-1.932;2023-03-22T01:01:12;99833.70;;;9.53;100.00
49645;BME280;36494;50.730;-1.932;2023-03-22T01:03:37;99831.15;;;9.50;100.00
49645;BME280;36494;50.730;-1.932;2023-03-22T01:06:03;99820.63;;;9.45;100.00
49645;BME280;36494;50.730;-1.932;2023-03-22T01:08:28;99816.92;;;9.44;100.00
49645;BME280;36494;50.730;-1.932;2023-03-22T01:10:53;99801.66;;;9.37;100.00
49645;BME280;36494;50.730;-1.932;2023-03-22T01:13:18;99800.70;;;9.35;100.00
49645;BME280;36494;50.730;-1.932;2023-03-22T01:15:43;99796.77;;;9.41;100.00
49645;BME280;36494;50.730;-1.932;2023-03-22T01:18:08;99792.81;;;9.37;100.00
49645;BME280;36494;50.730;-1.932;2023-03-22T01:20:34;99792.65;;;9.40;100.00
49645;BME280;36494;50.730;-1.932;2023-03-22T01:22:59;99779.50;;;9.33;100.00
49645;BME280;36494;50.730;-1.932;2023-03-22T01:25:24;99778.28;;;9.30;100.00
49645;BME280;36494;50.730;-1.932;2023-03-22T01:27:50;99764.36;;;9.26;100.00
49645;BME280;36494;50.730;-1.932;2023-03-22T01:30:15;99762.76;;;9.20;100.00
49645;BME280;36494;50.730;-1.932;2023-03-22T01:32:40;99759.83;;;9.20;100.00
49645;BME280;36494;50.730;-1.932;2023-03-22T01:35:06;99767.53;;;9.19;100.00
49645;BME280;36494;50.730;-1.932;2023-03-22T01:37:31;99761.97;;;9.20;100.00
49645;BME280;36494;50.730;-1.932;2023-03-22T01:39:56;99750.48;;;9.23;100.00
49645;BME280;36494;50.730;-1.932;2023-03-22T01:42:22;99751.04;;;9.20;100.00
49645;BME280;36494;50.730;-1.932;2023-03-22T01:47:12;99747.52;;;9.13;100.00
49645;BME280;36494;50.730;-1.932;2023-03-22T01:49:38;99741.52;;;9.14;100.00
49645;BME280;36494;50.730;-1.932;2023-03-22T01:52:06;99733.88;;;9.09;100.00
49645;BME280;36494;50.730;-1.932;2023-03-22T01:54:31;99736.26;;;9.13;100.00
49645;BME280;36494;50.730;-1.932;2023-03-22T01:56:52;99742.66;;;9.12;100.00
49645;BME280;36494;50.730;-1.932;2023-03-22T01:59:18;99736.45;;;9.16;100.00
49645;BME280;36494;50.730;-1.932;2023-03-22T02:01:43;99725.71;;;9.09;100.00
49645;BME280;36494;50.730;-1.932;2023-03-22T02:04:10;99734.61;;;9.16;100.00
49645;BME280;36494;50.730;-1.932;2023-03-22T02:06:34;99723.10;;;9.09;100.00
49645;BME280;36494;50.730;-1.932;2023-03-22T02:08:59;99725.10;;;9.14;100.00
49645;BME280;36494;50.730;-1.932;2023-03-22T02:11:28;99713.97;;;9.15;100.00
49645;BME280;36494;50.730;-1.932;2023-03-22T02:14:07;99723.94;;;9.13;100.00
49645;BME280;36494;50.730;-1.932;2023-03-22T02:16:25;99719.80;;;9.12;100.00
49645;BME280;36494;50.730;-1.932;2023-03-22T02:18:54;99720.27;;;9.09;100.00
49645;BME280;36494;50.730;-1.932;2023-03-22T02:21:24;99721.25;;;9.12;100.00
49645;BME280;36494;50.730;-1.932;2023-03-22T02:23:46;99712.61;;;9.12;100.00
49645;BME280;36494;50.730;-1.932;2023-03-22T02:28:30;99705.99;;;9.11;100.00
49645;BME280;36494;50.730;-1.932;2023-03-22T02:31:01;99708.30;;;9.06;100.00
49645;BME280;36494;50.730;-1.932;2023-03-22T02:33:23;99711.58;;;9.08;100.00
49645;BME280;36494;50.730;-1.932;2023-03-22T02:35:45;99704.33;;;9.02;100.00
49645;BME280;36494;50.730;-1.932;2023-03-22T02:38:26;99697.27;;;9.04;100.00
49645;BME280;36494;50.730;-1.932;2023-03-22T02:40:30;99693.34;;;9.05;100.00
49645;BME280;36494;50.730;-1.932;2023-03-22T02:42:59;99684.69;;;9.03;100.00
49645;BME280;36494;50.730;-1.932;2023-03-22T02:45:24;99692.00;;;9.04;100.00
49645;BME280;36494;50.730;-1.932;2023-03-22T02:47:52;99678.31;;;9.02;100.00
49645;BME280;36494;50.730;-1.932;2023-03-22T02:50:13;99678.81;;;9.08;100.00
49645;BME280;36494;50.730;-1.932;2023-03-22T02:52:38;99671.32;;;9.05;100.00
49645;BME280;36494;50.730;-1.932;2023-03-22T02:55:05;99669.47;;;9.11;100.00
49645;BME280;36494;50.730;-1.932;2023-03-22T02:57:30;99671.01;;;9.03;100.00
49645;BME280;36494;50.730;-1.932;2023-03-22T02:59:51;99666.43;;;9.04;100.00
49645;BME280;36494;50.730;-1.932;2023-03-22T03:02:16;99656.27;;;9.09;100.00
49645;BME280;36494;50.730;-1.932;2023-03-22T03:04:43;99655.09;;;9.06;100.00
49645;BME280;36494;50.730;-1.932;2023-03-22T03:07:07;99651.91;;;9.01;100.00
49645;BME280;36494;50.730;-1.932;2023-03-22T03:09:32;99647.21;;;8.99;100.00
49645;BME280;36494;50.730;-1.932;2023-03-22T03:11:57;99641.32;;;9.04;100.00
49645;BME280;36494;50.730;-1.932;2023-03-22T03:14:23;99646.92;;;8.96;100.00
49645;BME280;36494;50.730;-1.932;2023-03-22T03:16:52;99635.36;;;8.97;100.00
49645;BME280;36494;50.730;-1.932;2023-03-22T03:19:18;99646.82;;;8.95;100.00
49645;BME280;36494;50.730;-1.932;2023-03-22T03:21:43;99631.79;;;8.96;100.00
49645;BME280;36494;50.730;-1.932;2023-03-22T03:24:14;99637.98;;;8.88;100.00
49645;BME280;36494;50.730;-1.932;2023-03-22T03:26:34;99634.95;;;8.96;100.00
49645;BME280;36494;50.730;-1.932;2023-03-22T03:28:57;99631.25;;;8.96;100.00
49645;BME280;36494;50.730;-1.932;2023-03-22T03:31:27;99627.79;;;8.97;100.00
49645;BME280;36494;50.730;-1.932;2023-03-22T03:33:50;99633.31;;;9.00;100.00
49645;BME280;36494;50.730;-1.932;2023-03-22T03:36:11;99615.87;;;8.99;100.00
49645;BME280;36494;50.730;-1.932;2023-03-22T03:38:37;99633.70;;;8.98;100.00
49645;BME280;36494;50.730;-1.932;2023-03-22T03:41:03;99622.26;;;8.96;100.00
49645;BME280;36494;50.730;-1.932;2023-03-22T03:43:26;99628.02;;;8.98;100.00
49645;BME280;36494;50.730;-1.932;2023-03-22T03:45:52;99621.70;;;8.95;100.00
49645;BME280;36494;50.730;-1.932;2023-03-22T03:48:19;99620.36;;;8.99;100.00
49645;BME280;36494;50.730;-1.932;2023-03-22T03:50:42;99620.94;;;8.97;100.00
49645;BME280;36494;50.730;-1.932;2023-03-22T03:53:08;99614.86;;;8.98;100.00
49645;BME280;36494;50.730;-1.932;2023-03-22T03:55:33;99622.94;;;8.98;100.00
49645;BME280;36494;50.730;-1.932;2023-03-22T03:57:58;99620.53;;;9.05;100.00
49645;BME280;36494;50.730;-1.932;2023-03-22T04:00:24;99625.04;;;8.99;100.00
49645;BME280;36494;50.730;-1.932;2023-03-22T04:02:49;99612.76;;;9.00;100.00
49645;BME280;36494;50.730;-1.932;2023-03-22T04:05:14;99614.39;;;9.04;100.00
49645;BME280;36494;50.730;-1.932;2023-03-22T04:07:40;99620.26;;;9.00;100.00
49645;BME280;36494;50.730;-1.932;2023-03-22T04:10:06;99613.14;;;9.07;100.00
49645;BME280;36494;50.730;-1.932;2023-03-22T04:12:31;99618.35;;;9.06;100.00
49645;BME280;36494;50.730;-1.932;2023-03-22T04:14:56;99614.65;;;9.06;100.00
49645;BME280;36494;50.730;-1.932;2023-03-22T04:17:21;99613.62;;;9.05;100.00
49645;BME280;36494;50.730;-1.932;2023-03-22T04:19:47;99621.84;;;9.04;100.00
49645;BME280;36494;50.730;-1.932;2023-03-22T04:22:12;99622.30;;;9.08;100.00
49645;BME280;36494;50.730;-1.932;2023-03-22T04:24:37;99611.16;;;9.06;100.00
49645;BME280;36494;50.730;-1.932;2023-03-22T04:27:03;99623.71;;;9.11;100.00
49645;BME280;36494;50.730;-1.932;2023-03-22T04:29:28;99610.96;;;9.12;100.00
49645;BME280;36494;50.730;-1.932;2023-03-22T04:31:53;99606.23;;;9.12;100.00
49645;BME280;36494;50.730;-1.932;2023-03-22T04:34:19;99598.05;;;9.09;100.00
49645;BME280;36494;50.730;-1.932;2023-03-22T04:36:44;99610.55;;;9.12;100.00
49645;BME280;36494;50.730;-1.932;2023-03-22T04:39:10;99604.11;;;9.10;100.00
49645;BME280;36494;50.730;-1.932;2023-03-22T04:41:36;99599.86;;;9.12;100.00
49645;BME280;36494;50.730;-1.932;2023-03-22T04:44:00;99593.72;;;9.14;100.00
49645;BME280;36494;50.730;-1.932;2023-03-22T04:46:26;99591.84;;;9.18;100.00
49645;BME280;36494;50.730;-1.932;2023-03-22T04:48:51;99600.28;;;9.18;100.00
49645;BME280;36494;50.730;-1.932;2023-03-22T04:51:16;99605.38;;;9.16;100.00
49645;BME280;36494;50.730;-1.932;2023-03-22T04:53:42;99594.30;;;9.15;100.00
49645;BME280;36494;50.730;-1.932;2023-03-22T04:56:09;99611.50;;;9.17;100.00
49645;BME280;36494;50.730;-1.932;2023-03-22T04:58:33;99608.75;;;9.16;100.00
49645;BME280;36494;50.730;-1.932;2023-03-22T05:00:57;99611.13;;;9.16;100.00
49645;BME280;36494;50.730;-1.932;2023-03-22T05:03:23;99616.95;;;9.19;100.00
49645;BME280;36494;50.730;-1.932;2023-03-22T05:05:50;99617.18;;;9.19;100.00
49645;BME280;36494;50.730;-1.932;2023-03-22T05:08:13;99618.89;;;9.18;100.00
49645;BME280;36494;50.730;-1.932;2023-03-22T05:10:39;99618.82;;;9.18;100.00
49645;BME280;36494;50.730;-1.932;2023-03-22T05:13:04;99622.64;;;9.23;100.00
49645;BME280;36494;50.730;-1.932;2023-03-22T05:15:29;99634.64;;;9.24;100.00
49645;BME280;36494;50.730;-1.932;2023-03-22T05:17:55;99636.14;;;9.25;100.00
49645;BME280;36494;50.730;-1.932;2023-03-22T05:20:20;99642.44;;;9.29;100.00
49645;BME280;36494;50.730;-1.932;2023-03-22T05:22:45;99636.89;;;9.30;100.00
49645;BME280;36494;50.730;-1.932;2023-03-22T05:25:11;99629.88;;;9.34;100.00
49645;BME280;36494;50.730;-1.932;2023-03-22T05:27:36;99629.97;;;9.35;100.00
49645;BME280;36494;50.730;-1.932;2023-03-22T05:30:01;99618.43;;;9.39;100.00
49645;BME280;36494;50.730;-1.932;2023-03-22T05:32:26;99624.72;;;9.35;100.00
49645;BME280;36494;50.730;-1.932;2023-03-22T05:34:51;99602.97;;;9.36;100.00
49645;BME280;36494;50.730;-1.932;2023-03-22T05:37:16;99602.50;;;9.40;100.00
49645;BME280;36494;50.730;-1.932;2023-03-22T05:39:42;99592.44;;;9.43;100.00
49645;BME280;36494;50.730;-1.932;2023-03-22T05:42:07;99578.92;;;9.50;100.00
49645;BME280;36494;50.730;-1.932;2023-03-22T05:44:33;99582.76;;;9.53;100.00
49645;BME280;36494;50.730;-1.932;2023-03-22T05:46:58;99586.63;;;9.55;100.00
49645;BME280;36494;50.730;-1.932;2023-03-22T05:49:24;99573.30;;;9.53;100.00
49645;BME280;36494;50.730;-1.932;2023-03-22T05:51:49;99565.73;;;9.51;100.00
49645;BME280;36494;50.730;-1.932;2023-03-22T05:54:15;99568.23;;;9.56;100.00
49645;BME280;36494;50.730;-1.932;2023-03-22T05:56:41;99581.29;;;9.58;100.00
49645;BME280;36494;50.730;-1.932;2023-03-22T05:59:06;99593.19;;;9.60;100.00
49645;BME280;36494;50.730;-1.932;2023-03-22T06:01:32;99570.85;;;9.59;100.00
49645;BME280;36494;50.730;-1.932;2023-03-22T06:03:57;99590.21;;;9.61;100.00
49645;BME280;36494;50.730;-1.932;2023-03-22T06:06:22;99586.99;;;9.56;100.00
49645;BME280;36494;50.730;-1.932;2023-03-22T06:08:47;99597.93;;;9.57;100.00
49645;BME280;36494;50.730;-1.932;2023-03-22T06:11:12;99590.03;;;9.53;100.00
49645;BME280;36494;50.730;-1.932;2023-03-22T06:13:38;99575.92;;;9.56;100.00
49645;BME280;36494;50.730;-1.932;2023-03-22T06:16:04;99566.70;;;9.60;100.00
49645;BME280;36494;50.730;-1.932;2023-03-22T06:18:29;99568.31;;;9.58;100.00
49645;BME280;36494;50.730;-1.932;2023-03-22T06:20:54;99570.64;;;9.59;100.00
49645;BME280;36494;50.730;-1.932;2023-03-22T06:23:19;99579.89;;;9.64;100.00
49645;BME280;36494;50.730;-1.932;2023-03-22T06:25:45;99588.95;;;9.63;100.00
49645;BME280;36494;50.730;-1.932;2023-03-22T06:28:10;99588.34;;;9.67;100.00
49645;BME280;36494;50.730;-1.932;2023-03-22T06:30:35;99592.52;;;9.71;100.00
49645;BME280;36494;50.730;-1.932;2023-03-22T06:33:00;99600.72;;;9.69;100.00
49645;BME280;36494;50.730;-1.932;2023-03-22T06:35:26;99595.68;;;9.71;100.00
49645;BME280;36494;50.730;-1.932;2023-03-22T06:37:51;99594.83;;;9.69;100.00
49645;BME280;36494;50.730;-1.932;2023-03-22T06:40:17;99602.32;;;9.72;100.00
49645;BME280;36494;50.730;-1.932;2023-03-22T06:42:43;99603.19;;;9.71;100.00
49645;BME280;36494;50.730;-1.932;2023-03-22T06:45:09;99606.60;;;9.71;100.00
49645;BME280;36494;50.730;-1.932;2023-03-22T06:47:35;99603.81;;;9.73;100.00
49645;BME280;36494;50.730;-1.932;2023-03-22T06:50:01;99608.50;;;9.79;100.00
49645;BME280;36494;50.730;-1.932;2023-03-22T06:52:27;99617.07;;;9.76;100.00
49645;BME280;36494;50.730;-1.932;2023-03-22T06:54:52;99616.01;;;9.80;100.00
49645;BME280;36494;50.730;-1.932;2023-03-22T06:57:18;99612.06;;;9.84;100.00
49645;BME280;36494;50.730;-1.932;2023-03-22T06:59:43;99618.99;;;9.87;100.00
49645;BME280;36494;50.730;-1.932;2023-03-22T07:02:10;99614.24;;;9.88;100.00
49645;BME280;36494;50.730;-1.932;2023-03-22T07:04:34;99616.20;;;9.89;100.00
49645;BME280;36494;50.730;-1.932;2023-03-22T07:06:59;99612.75;;;9.90;100.00
49645;BME280;36494;50.730;-1.932;2023-03-22T07:09:24;99610.70;;;9.92;100.00
49645;BME280;36494;50.730;-1.932;2023-03-22T07:11:49;99614.96;;;9.92;100.00
49645;BME280;36494;50.730;-1.932;2023-03-22T07:14:15;99620.89;;;9.91;100.00
49645;BME280;36494;50.730;-1.932;2023-03-22T07:16:41;99626.69;;;9.92;100.00
49645;BME280;36494;50.730;-1.932;2023-03-22T07:19:07;99621.09;;;9.96;100.00
49645;BME280;36494;50.730;-1.932;2023-03-22T07:21:32;99620.18;;;9.99;100.00
49645;BME280;36494;50.730;-1.932;2023-03-22T07:23:58;99615.54;;;9.96;100.00
49645;BME280;36494;50.730;-1.932;2023-03-22T07:26:24;99616.44;;;10.04;100.00
49645;BME280;36494;50.730;-1.932;2023-03-22T07:28:49;99619.35;;;10.00;100.00
49645;BME280;36494;50.730;-1.932;2023-03-22T07:31:16;99627.39;;;10.05;100.00
49645;BME280;36494;50.730;-1.932;2023-03-22T07:33:40;99630.60;;;10.01;100.00
49645;BME280;36494;50.730;-1.932;2023-03-22T07:36:07;99636.01;;;10.04;100.00
49645;BME280;36494;50.730;-1.932;2023-03-22T07:38:30;99635.08;;;10.06;100.00
49645;BME280;36494;50.730;-1.932;2023-03-22T07:40:56;99635.08;;;10.11;100.00
49645;BME280;36494;50.730;-1.932;2023-03-22T07:43:22;99636.98;;;10.09;100.00
49645;BME280;36494;50.730;-1.932;2023-03-22T07:45:47;99637.23;;;10.11;100.00
49645;BME280;36494;50.730;-1.932;2023-03-22T07:48:12;99637.40;;;10.16;100.00
49645;BME280;36494;50.730;-1.932;2023-03-22T07:50:37;99642.28;;;10.15;100.00
49645;BME280;36494;50.730;-1.932;2023-03-22T07:53:03;99634.08;;;10.20;100.00
49645;BME280;36494;50.730;-1.932;2023-03-22T07:55:29;99639.92;;;10.16;100.00
49645;BME280;36494;50.730;-1.932;2023-03-22T07:57:54;99634.24;;;10.24;100.00
49645;BME280;36494;50.730;-1.932;2023-03-22T08:00:20;99633.30;;;10.23;100.00
49645;BME280;36494;50.730;-1.932;2023-03-22T08:02:45;99626.14;;;10.29;100.00
49645;BME280;36494;50.730;-1.932;2023-03-22T08:05:11;99630.65;;;10.27;100.00
49645;BME280;36494;50.730;-1.932;2023-03-22T08:07:36;99633.70;;;10.30;100.00
49645;BME280;36494;50.730;-1.932;2023-03-22T08:10:02;99637.85;;;10.38;100.00
49645;BME280;36494;50.730;-1.932;2023-03-22T08:12:27;99645.99;;;10.43;100.00
49645;BME280;36494;50.730;-1.932;2023-03-22T08:14:52;99657.23;;;10.43;100.00
49645;BME280;36494;50.730;-1.932;2023-03-22T08:17:17;99643.32;;;10.44;100.00
49645;BME280;36494;50.730;-1.932;2023-03-22T08:19:42;99637.74;;;10.39;100.00
49645;BME280;36494;50.730;-1.932;2023-03-22T08:22:08;99642.19;;;10.45;100.00
49645;BME280;36494;50.730;-1.932;2023-03-22T08:24:34;99642.87;;;10.48;100.00
49645;BME280;36494;50.730;-1.932;2023-03-22T08:26:59;99641.42;;;10.50;100.00
49645;BME280;36494;50.730;-1.932;2023-03-22T08:29:24;99642.51;;;10.55;100.00
49645;BME280;36494;50.730;-1.932;2023-03-22T08:31:50;99644.96;;;10.56;100.00
49645;BME280;36494;50.730;-1.932;2023-03-22T08:34:15;99646.60;;;10.53;100.00
49645;BME280;36494;50.730;-1.932;2023-03-22T08:36:40;99644.49;;;10.57;100.00
49645;BME280;36494;50.730;-1.932;2023-03-22T08:39:06;99647.25;;;10.57;100.00
49645;BME280;36494;50.730;-1.932;2023-03-22T08:41:31;99644.93;;;10.54;100.00
49645;BME280;36494;50.730;-1.932;2023-03-22T08:43:57;99638.77;;;10.59;100.00
49645;BME280;36494;50.730;-1.932;2023-03-22T08:46:23;99634.05;;;10.61;100.00
49645;BME280;36494;50.730;-1.932;2023-03-22T08:48:48;99633.24;;;10.64;100.00
49645;BME280;36494;50.730;-1.932;2023-03-22T08:51:14;99640.43;;;10.65;100.00
49645;BME280;36494;50.730;-1.932;2023-03-22T08:53:40;99642.99;;;10.72;100.00
49645;BME280;36494;50.730;-1.932;2023-03-22T08:56:07;99641.11;;;10.77;100.00
49645;BME280;36494;50.730;-1.932;2023-03-22T08:58:31;99655.10;;;10.70;100.00
49645;BME280;36494;50.730;-1.932;2023-03-22T09:00:56;99653.85;;;10.75;100.00
49645;BME280;36494;50.730;-1.932;2023-03-22T09:03:22;99652.16;;;10.73;100.00
49645;BME280;36494;50.730;-1.932;2023-03-22T09:05:47;99655.51;;;10.71;100.00
49645;BME280;36494;50.730;-1.932;2023-03-22T09:08:12;99651.94;;;10.73;100.00
49645;BME280;36494;50.730;-1.932;2023-03-22T09:10:38;99650.87;;;10.67;100.00
49645;BME280;36494;50.730;-1.932;2023-03-22T09:13:03;99645.48;;;10.67;100.00
49645;BME280;36494;50.730;-1.932;2023-03-22T09:15:29;99648.61;;;10.64;100.00
49645;BME280;36494;50.730;-1.932;2023-03-22T09:17:55;99642.63;;;10.60;100.00
49645;BME280;36494;50.730;-1.932;2023-03-22T09:20:20;99645.80;;;10.68;100.00
49645;BME280;36494;50.730;-1.932;2023-03-22T09:22:45;99644.63;;;10.60;100.00
49645;BME280;36494;50.730;-1.932;2023-03-22T09:25:10;99643.38;;;10.63;100.00
49645;BME280;36494;50.730;-1.932;2023-03-22T09:27:36;99635.14;;;10.57;100.00
49645;BME280;36494;50.730;-1.932;2023-03-22T09:30:02;99635.25;;;10.63;100.00
49645;BME280;36494;50.730;-1.932;2023-03-22T09:32:27;99636.10;;;10.63;100.00
49645;BME280;36494;50.730;-1.932;2023-03-22T09:34:53;99633.44;;;10.67;100.00
49645;BME280;36494;50.730;-1.932;2023-03-22T09:37:18;99625.36;;;10.70;100.00
49645;BME280;36494;50.730;-1.932;2023-03-22T09:39:43;99623.17;;;10.65;100.00
49645;BME280;36494;50.730;-1.932;2023-03-22T09:42:19;99625.60;;;10.75;100.00
49645;BME280;36494;50.730;-1.932;2023-03-22T09:44:39;99631.11;;;10.79;100.00
49645;BME280;36494;50.730;-1.932;2023-03-22T09:47:01;99637.31;;;10.93;100.00
49645;BME280;36494;50.730;-1.932;2023-03-22T09:49:28;99634.50;;;10.85;100.00
49645;BME280;36494;50.730;-1.932;2023-03-22T09:51:51;99634.94;;;10.93;100.00
49645;BME280;36494;50.730;-1.932;2023-03-22T09:54:18;99642.05;;;10.91;100.00
49645;BME280;36494;50.730;-1.932;2023-03-22T09:56:42;99632.88;;;10.97;100.00
49645;BME280;36494;50.730;-1.932;2023-03-22T09:59:12;99640.32;;;11.08;100.00
49645;BME280;36494;50.730;-1.932;2023-03-22T10:01:37;99643.35;;;11.04;100.00
49645;BME280;36494;50.730;-1.932;2023-03-22T10:04:14;99647.93;;;11.11;100.00
49645;BME280;36494;50.730;-1.932;2023-03-22T10:06:25;99649.81;;;11.15;100.00
49645;BME280;36494;50.730;-1.932;2023-03-22T10:08:56;99639.17;;;11.24;100.00
49645;BME280;36494;50.730;-1.932;2023-03-22T10:11:21;99638.38;;;11.19;100.00
49645;BME280;36494;50.730;-1.932;2023-03-22T10:13:46;99634.43;;;11.23;100.00
49645;BME280;36494;50.730;-1.932;2023-03-22T10:16:10;99632.76;;;11.32;100.00
49645;BME280;36494;50.730;-1.932;2023-03-22T10:18:35;99637.49;;;11.31;100.00
49645;BME280;36494;50.730;-1.932;2023-03-22T10:20:59;99639.13;;;11.38;100.00
49645;BME280;36494;50.730;-1.932;2023-03-22T10:23:27;99636.91;;;11.43;100.00
49645;BME280;36494;50.730;-1.932;2023-03-22T10:25:48;99643.49;;;11.42;100.00
49645;BME280;36494;50.730;-1.932;2023-03-22T10:28:15;99645.60;;;11.42;100.00
49645;BME280;36494;50.730;-1.932;2023-03-22T10:30:39;99649.29;;;11.27;100.00
49645;BME280;36494;50.730;-1.932;2023-03-22T10:33:11;99650.81;;;11.39;100.00
49645;BME280;36494;50.730;-1.932;2023-03-22T10:35:29;99663.23;;;11.43;100.00
49645;BME280;36494;50.730;-1.932;2023-03-22T10:37:56;99663.17;;;11.48;100.00
49645;BME280;36494;50.730;-1.932;2023-03-22T10:40:24;99661.56;;;11.52;100.00
49645;BME280;36494;50.730;-1.932;2023-03-22T10:42:50;99659.55;;;11.62;100.00
49645;BME280;36494;50.730;-1.932;2023-03-22T10:45:12;99653.04;;;11.81;100.00
49645;BME280;36494;50.730;-1.932;2023-03-22T10:47:40;99652.68;;;11.80;100.00
49645;BME280;36494;50.730;-1.932;2023-03-22T10:50:04;99654.56;;;11.79;100.00
49645;BME280;36494;50.730;-1.932;2023-03-22T10:52:36;99656.48;;;11.92;100.00
49645;BME280;36494;50.730;-1.932;2023-03-22T10:54:53;99650.46;;;12.18;100.00
49645;BME280;36494;50.730;-1.932;2023-03-22T10:57:18;99652.67;;;12.33;100.00
49645;BME280;36494;50.730;-1.932;2023-03-22T10:59:45;99658.63;;;12.48;100.00
49645;BME280;36494;50.730;-1.932;2023-03-22T11:02:18;99653.54;;;12.62;100.00
49645;BME280;36494;50.730;-1.932;2023-03-22T11:04:36;99655.00;;;12.63;100.00
49645;BME280;36494;50.730;-1.932;2023-03-22T11:07:00;99652.31;;;12.77;100.00
49645;BME280;36494;50.730;-1.932;2023-03-22T11:09:26;99658.73;;;12.82;100.00
49645;BME280;36494;50.730;-1.932;2023-03-22T11:11:52;99654.38;;;12.84;100.00
49645;BME280;36494;50.730;-1.932;2023-03-22T11:14:29;99651.31;;;13.09;100.00
49645;BME280;36494;50.730;-1.932;2023-03-22T11:16:49;99644.48;;;13.31;100.00
49645;BME280;36494;50.730;-1.932;2023-03-22T11:19:13;99652.88;;;13.41;100.00
49645;BME280;36494;50.730;-1.932;2023-03-22T11:21:32;99649.17;;;13.36;100.00
49645;BME280;36494;50.730;-1.932;2023-03-22T11:24:01;99649.04;;;13.05;100.00
49645;BME280;36494;50.730;-1.932;2023-03-22T11:26:27;99649.64;;;12.94;100.00
49645;BME280;36494;50.730;-1.932;2023-03-22T11:28:49;99643.32;;;12.86;100.00
49645;BME280;36494;50.730;-1.932;2023-03-22T11:31:16;99638.23;;;12.91;100.00
49645;BME280;36494;50.730;-1.932;2023-03-22T11:33:53;99636.48;;;12.90;100.00
49645;BME280;36494;50.730;-1.932;2023-03-22T11:36:14;99642.80;;;12.95;100.00
49645;BME280;36494;50.730;-1.932;2023-03-22T11:38:35;99652.30;;;13.35;100.00
49645;BME280;36494;50.730;-1.932;2023-03-22T11:40:59;99653.23;;;12.94;100.00
49645;BME280;36494;50.730;-1.932;2023-03-22T11:43:23;99650.60;;;12.84;100.00
49645;BME280;36494;50.730;-1.932;2023-03-22T11:45:49;99658.62;;;12.85;100.00
49645;BME280;36494;50.730;-1.932;2023-03-22T11:48:15;99666.33;;;12.74;100.00
49645;BME280;36494;50.730;-1.932;2023-03-22T11:50:41;99651.92;;;12.95;100.00
49645;BME280;36494;50.730;-1.932;2023-03-22T11:53:06;99639.56;;;12.98;100.00
49645;BME280;36494;50.730;-1.932;2023-03-22T11:55:29;99637.01;;;12.92;100.00
49645;BME280;36494;50.730;-1.932;2023-03-22T11:57:54;99643.81;;;12.94;100.00
49645;BME280;36494;50.730;-1.932;2023-03-22T12:00:22;99650.87;;;12.84;100.00
49645;BME280;36494;50.730;-1.932;2023-03-22T12:02:47;99654.40;;;12.54;100.00
49645;BME280;36494;50.730;-1.932;2023-03-22T12:05:14;99655.21;;;12.59;100.00
49645;BME280;36494;50.730;-1.932;2023-03-22T12:07:35;99652.93;;;12.61;100.00
49645;BME280;36494;50.730;-1.932;2023-03-22T12:10:04;99653.81;;;12.65;100.00
49645;BME280;36494;50.730;-1.932;2023-03-22T12:12:28;99654.67;;;12.69;100.00
49645;BME280;36494;50.730;-1.932;2023-03-22T12:14:53;99651.00;;;12.45;100.00
49645;BME280;36494;50.730;-1.932;2023-03-22T12:17:22;99650.33;;;12.63;100.00
49645;BME280;36494;50.730;-1.932;2023-03-22T12:19:49;99658.92;;;12.55;100.00
49645;BME280;36494;50.730;-1.932;2023-03-22T12:22:10;99657.80;;;12.29;100.00
49645;BME280;36494;50.730;-1.932;2023-03-22T12:24:32;99653.69;;;12.30;100.00
49645;BME280;36494;50.730;-1.932;2023-03-22T12:27:01;99654.31;;;12.29;100.00
49645;BME280;36494;50.730;-1.932;2023-03-22T12:29:24;99652.52;;;12.25;100.00
49645;BME280;36494;50.730;-1.932;2023-03-22T12:31:55;99649.80;;;12.32;100.00
49645;BME280;36494;50.730;-1.932;2023-03-22T12:34:15;99652.45;;;12.40;100.00
49645;BME280;36494;50.730;-1.932;2023-03-22T12:36:40;99649.40;;;12.42;100.00
49645;BME280;36494;50.730;-1.932;2023-03-22T12:39:06;99647.94;;;12.37;100.00